sensor_id;sensor_type;location;lat;lon;timestamp;P1;durP1;ratioP1;P2;durP2;ratioP2
36817;SDS011;22761;51.542;16.450;2023-04-21T00:00:27;20.80;;;9.80;;
36817;SDS011;22761;51.542;16.450;2023-04-21T00:03:26;15.70;;;9.40;;
36817;SDS011;22761;51.542;16.450;2023-04-21T00:06:13;20.00;;;9.40;;
36817;SDS011;22761;51.542;16.450;2023-04-21T00:09:07;21.30;;;8.70;;
36817;SDS011;22761;51.542;16.450;2023-04-21T00:14:59;15.00;;;8.80;;
36817;SDS011;22761;51.542;16.450;2023-04-21T00:18:05;16.80;;;9.10;;
36817;SDS011;22761;51.542;16.450;2023-04-21T00:23:55;16.80;;;8.20;;
36817;SDS011;22761;51.542;16.450;2023-04-21T00:26:58;19.30;;;9.10;;
36817;SDS011;22761;51.542;16.450;2023-04-21T00:32:47;16.80;;;9.00;;
36817;SDS011;22761;51.542;16.450;2023-04-21T00:35:41;18.80;;;10.20;;
36817;SDS011;22761;51.542;16.450;2023-04-21T00:38:54;16.80;;;10.40;;
36817;SDS011;22761;51.542;16.450;2023-04-21T00:44:41;16.30;;;10.10;;
36817;SDS011;22761;51.542;16.450;2023-04-21T00:47:32;20.90;;;11.50;;
36817;SDS011;22761;51.542;16.450;2023-04-21T00:53:27;18.60;;;10.10;;
36817;SDS011;22761;51.542;16.450;2023-04-21T00:59:23;16.60;;;9.90;;
36817;SDS011;22761;51.542;16.450;2023-04-21T01:05:24;18.60;;;10.40;;
36817;SDS011;22761;51.542;16.450;2023-04-21T01:08:33;16.50;;;9.80;;
36817;SDS011;22761;51.542;16.450;2023-04-21T01:11:32;16.00;;;10.20;;
36817;SDS011;22761;51.542;16.450;2023-04-21T01:14:29;18.30;;;9.40;;
36817;SDS011;22761;51.542;16.450;2023-04-21T01:20:42;19.90;;;10.30;;
36817;SDS011;22761;51.542;16.450;2023-04-21T01:30:06;16.50;;;8.90;;
36817;SDS011;22761;51.542;16.450;2023-04-21T01:33:02;15.50;;;9.60;;
36817;SDS011;22761;51.542;16.450;2023-04-21T02:01:25;19.00;;;11.30;;
36817;SDS011;22761;51.542;16.450;2023-04-21T02:07:50;17.80;;;10.40;;
36817;SDS011;22761;51.542;16.450;2023-04-21T02:10:53;19.30;;;11.60;;
36817;SDS011;22761;51.542;16.450;2023-04-21T02:14:13;16.20;;;10.50;;
36817;SDS011;22761;51.542;16.450;2023-04-21T02:17:09;18.20;;;11.30;;
36817;SDS011;22761;51.542;16.450;2023-04-21T02:23:51;17.40;;;10.80;;
36817;SDS011;22761;51.542;16.450;2023-04-21T02:30:08;18.20;;;10.80;;
36817;SDS011;22761;51.542;16.450;2023-04-21T02:33:30;17.20;;;10.60;;
36817;SDS011;22761;51.542;16.450;2023-04-21T02:40:18;18.20;;;11.60;;
36817;SDS011;22761;51.542;16.450;2023-04-21T02:43:03;20.50;;;12.00;;
36817;SDS011;22761;51.542;16.450;2023-04-21T03:13:30;18.10;;;12.50;;
36817;SDS011;22761;51.542;16.450;2023-04-21T03:59:54;20.20;;;14.10;;
36817;SDS011;22761;51.542;16.450;2023-04-21T04:13:51;20.60;;;13.70;;
36817;SDS011;22761;51.542;16.450;2023-04-21T04:17:18;23.20;;;15.20;;
36817;SDS011;22761;51.542;16.450;2023-04-21T04:20:10;22.00;;;13.70;;
36817;SDS011;22761;51.542;16.450;2023-04-21T04:26:56;19.00;;;12.80;;
36817;SDS011;22761;51.542;16.450;2023-04-21T04:32:25;21.20;;;12.90;;
36817;SDS011;22761;51.542;16.450;2023-04-21T04:35:01;18.00;;;12.30;;
36817;SDS011;22761;51.542;16.450;2023-04-21T04:37:44;16.00;;;12.20;;
36817;SDS011;22761;51.542;16.450;2023-04-21T04:40:25;21.80;;;13.70;;
36817;SDS011;22761;51.542;16.450;2023-04-21T04:43:11;23.10;;;12.80;;
36817;SDS011;22761;51.542;16.450;2023-04-21T04:45:43;18.60;;;12.10;;
36817;SDS011;22761;51.542;16.450;2023-04-21T04:48:15;20.20;;;12.90;;
36817;SDS011;22761;51.542;16.450;2023-04-21T04:50:51;20.60;;;13.70;;
36817;SDS011;22761;51.542;16.450;2023-04-21T04:53:23;22.40;;;14.10;;
36817;SDS011;22761;51.542;16.450;2023-04-21T04:56:05;24.10;;;14.40;;
36817;SDS011;22761;51.542;16.450;2023-04-21T04:58:36;17.10;;;12.90;;
36817;SDS011;22761;51.542;16.450;2023-04-21T05:01:19;18.60;;;12.90;;
36817;SDS011;22761;51.542;16.450;2023-04-21T05:04:01;24.60;;;15.70;;
36817;SDS011;22761;51.542;16.450;2023-04-21T05:07:08;22.50;;;14.80;;
36817;SDS011;22761;51.542;16.450;2023-04-21T05:10:04;21.50;;;14.00;;
36817;SDS011;22761;51.542;16.450;2023-04-21T05:12:42;18.20;;;13.80;;
36817;SDS011;22761;51.542;16.450;2023-04-21T05:15:17;23.00;;;15.10;;
36817;SDS011;22761;51.542;16.450;2023-04-21T05:17:54;23.80;;;15.20;;
36817;SDS011;22761;51.542;16.450;2023-04-21T05:20:31;24.30;;;16.10;;
36817;SDS011;22761;51.542;16.450;2023-04-21T05:23:14;27.80;;;15.40;;
36817;SDS011;22761;51.542;16.450;2023-04-21T05:28:46;22.90;;;16.00;;
36817;SDS011;22761;51.542;16.450;2023-04-21T05:31:20;22.60;;;15.40;;
36817;SDS011;22761;51.542;16.450;2023-04-21T05:33:55;21.10;;;15.80;;
36817;SDS011;22761;51.542;16.450;2023-04-21T05:36:39;23.50;;;16.80;;
36817;SDS011;22761;51.542;16.450;2023-04-21T05:39:13;23.30;;;16.60;;
36817;SDS011;22761;51.542;16.450;2023-04-21T05:41:50;23.90;;;17.10;;
36817;SDS011;22761;51.542;16.450;2023-04-21T05:44:24;26.60;;;16.90;;
36817;SDS011;22761;51.542;16.450;2023-04-21T05:47:01;25.00;;;16.70;;
36817;SDS011;22761;51.542;16.450;2023-04-21T05:49:39;27.20;;;16.50;;
36817;SDS011;22761;51.542;16.450;2023-04-21T05:52:13;24.70;;;17.10;;
36817;SDS011;22761;51.542;16.450;2023-04-21T05:54:46;24.20;;;16.20;;
36817;SDS011;22761;51.542;16.450;2023-04-21T05:57:20;24.00;;;15.60;;
36817;SDS011;22761;51.542;16.450;2023-04-21T05:59:59;25.70;;;16.40;;
36817;SDS011;22761;51.542;16.450;2023-04-21T06:02:35;21.20;;;15.10;;
36817;SDS011;22761;51.542;16.450;2023-04-21T06:05:09;24.10;;;15.50;;
36817;SDS011;22761;51.542;16.450;2023-04-21T06:07:48;25.40;;;16.10;;
36817;SDS011;22761;51.542;16.450;2023-04-21T06:10:24;20.70;;;15.30;;
36817;SDS011;22761;51.542;16.450;2023-04-21T06:13:01;24.30;;;16.00;;
36817;SDS011;22761;51.542;16.450;2023-04-21T06:15:41;22.70;;;15.90;;
36817;SDS011;22761;51.542;16.450;2023-04-21T06:18:10;27.00;;;16.60;;
36817;SDS011;22761;51.542;16.450;2023-04-21T06:20:52;26.90;;;17.70;;
36817;SDS011;22761;51.542;16.450;2023-04-21T06:23:26;22.10;;;16.80;;
36817;SDS011;22761;51.542;16.450;2023-04-21T06:26:07;24.10;;;16.20;;
36817;SDS011;22761;51.542;16.450;2023-04-21T06:28:39;22.50;;;15.90;;
36817;SDS011;22761;51.542;16.450;2023-04-21T06:31:24;19.40;;;15.50;;
36817;SDS011;22761;51.542;16.450;2023-04-21T06:34:12;22.20;;;16.30;;
36817;SDS011;22761;51.542;16.450;2023-04-21T06:37:01;21.60;;;16.70;;
36817;SDS011;22761;51.542;16.450;2023-04-21T06:39:46;23.60;;;16.50;;
36817;SDS011;22761;51.542;16.450;2023-04-21T06:42:30;23.40;;;15.30;;
36817;SDS011;22761;51.542;16.450;2023-04-21T06:45:02;20.40;;;15.40;;
36817;SDS011;22761;51.542;16.450;2023-04-21T06:47:30;20.50;;;15.10;;
36817;SDS011;22761;51.542;16.450;2023-04-21T06:49:58;20.50;;;15.50;;
36817;SDS011;22761;51.542;16.450;2023-04-21T06:52:27;20.50;;;16.10;;
36817;SDS011;22761;51.542;16.450;2023-04-21T06:54:55;20.70;;;15.20;;
36817;SDS011;22761;51.542;16.450;2023-04-21T06:57:23;22.20;;;15.40;;
36817;SDS011;22761;51.542;16.450;2023-04-21T06:59:51;24.70;;;16.80;;
36817;SDS011;22761;51.542;16.450;2023-04-21T07:02:25;25.70;;;17.00;;
36817;SDS011;22761;51.542;16.450;2023-04-21T07:04:59;21.30;;;16.10;;
36817;SDS011;22761;51.542;16.450;2023-04-21T07:07:36;20.50;;;15.70;;
36817;SDS011;22761;51.542;16.450;2023-04-21T07:10:08;19.90;;;15.80;;
36817;SDS011;22761;51.542;16.450;2023-04-21T07:12:49;21.80;;;16.00;;
36817;SDS011;22761;51.542;16.450;2023-04-21T07:15:29;19.60;;;15.60;;
36817;SDS011;22761;51.542;16.450;2023-04-21T07:18:04;20.40;;;14.80;;
36817;SDS011;22761;51.542;16.450;2023-04-21T07:20:44;22.00;;;14.90;;
36817;SDS011;22761;51.542;16.450;2023-04-21T07:23:15;26.90;;;13.50;;
36817;SDS011;22761;51.542;16.450;2023-04-21T07:26:00;19.50;;;14.40;;
36817;SDS011;22761;51.542;16.450;2023-04-21T07:28:41;22.00;;;14.30;;
36817;SDS011;22761;51.542;16.450;2023-04-21T07:31:19;17.90;;;14.60;;
36817;SDS011;22761;51.542;16.450;2023-04-21T07:33:50;21.50;;;15.20;;
36817;SDS011;22761;51.542;16.450;2023-04-21T07:36:32;23.40;;;15.60;;
36817;SDS011;22761;51.542;16.450;2023-04-21T07:39:17;20.90;;;15.80;;
36817;SDS011;22761;51.542;16.450;2023-04-21T07:41:51;19.70;;;15.30;;
36817;SDS011;22761;51.542;16.450;2023-04-21T07:44:23;20.80;;;14.50;;
36817;SDS011;22761;51.542;16.450;2023-04-21T07:47:02;19.70;;;14.40;;
36817;SDS011;22761;51.542;16.450;2023-04-21T07:49:38;22.20;;;15.60;;
36817;SDS011;22761;51.542;16.450;2023-04-21T07:52:17;22.40;;;15.90;;
36817;SDS011;22761;51.542;16.450;2023-04-21T07:54:54;19.90;;;14.40;;
36817;SDS011;22761;51.542;16.450;2023-04-21T07:57:28;20.20;;;15.50;;
36817;SDS011;22761;51.542;16.450;2023-04-21T08:00:02;18.70;;;14.70;;
36817;SDS011;22761;51.542;16.450;2023-04-21T08:02:39;17.30;;;14.10;;
36817;SDS011;22761;51.542;16.450;2023-04-21T08:05:21;18.30;;;14.50;;
36817;SDS011;22761;51.542;16.450;2023-04-21T08:07:59;17.90;;;14.40;;
36817;SDS011;22761;51.542;16.450;2023-04-21T08:10:40;16.80;;;13.30;;
36817;SDS011;22761;51.542;16.450;2023-04-21T08:13:16;18.20;;;14.10;;
36817;SDS011;22761;51.542;16.450;2023-04-21T08:15:50;20.90;;;14.20;;
36817;SDS011;22761;51.542;16.450;2023-04-21T08:18:31;19.00;;;14.40;;
36817;SDS011;22761;51.542;16.450;2023-04-21T08:21:02;18.10;;;14.50;;
36817;SDS011;22761;51.542;16.450;2023-04-21T08:23:31;17.30;;;13.40;;
36817;SDS011;22761;51.542;16.450;2023-04-21T08:26:02;20.60;;;13.80;;
36817;SDS011;22761;51.542;16.450;2023-04-21T08:28:40;18.40;;;14.20;;
36817;SDS011;22761;51.542;16.450;2023-04-21T08:31:17;21.20;;;14.10;;
36817;SDS011;22761;51.542;16.450;2023-04-21T08:33:52;20.00;;;13.10;;
36817;SDS011;22761;51.542;16.450;2023-04-21T08:36:32;17.90;;;13.30;;
36817;SDS011;22761;51.542;16.450;2023-04-21T08:39:03;20.70;;;14.40;;
36817;SDS011;22761;51.542;16.450;2023-04-21T08:41:32;17.90;;;13.40;;
36817;SDS011;22761;51.542;16.450;2023-04-21T08:44:01;16.50;;;12.50;;
36817;SDS011;22761;51.542;16.450;2023-04-21T08:46:33;17.40;;;12.80;;
36817;SDS011;22761;51.542;16.450;2023-04-21T08:49:05;16.10;;;12.90;;
36817;SDS011;22761;51.542;16.450;2023-04-21T08:51:36;16.10;;;12.10;;
36817;SDS011;22761;51.542;16.450;2023-04-21T08:54:05;14.60;;;11.90;;
36817;SDS011;22761;51.542;16.450;2023-04-21T08:56:37;15.80;;;12.20;;
36817;SDS011;22761;51.542;16.450;2023-04-21T08:59:07;16.50;;;11.70;;
36817;SDS011;22761;51.542;16.450;2023-04-21T09:04:45;14.60;;;11.50;;
36817;SDS011;22761;51.542;16.450;2023-04-21T09:10:06;17.40;;;11.10;;
36817;SDS011;22761;51.542;16.450;2023-04-21T09:12:37;14.70;;;11.70;;
36817;SDS011;22761;51.542;16.450;2023-04-21T09:15:08;15.70;;;12.00;;
36817;SDS011;22761;51.542;16.450;2023-04-21T09:17:38;14.60;;;10.40;;
36817;SDS011;22761;51.542;16.450;2023-04-21T09:20:13;14.90;;;10.50;;
36817;SDS011;22761;51.542;16.450;2023-04-21T09:22:49;16.20;;;11.30;;
36817;SDS011;22761;51.542;16.450;2023-04-21T09:25:20;16.00;;;11.50;;
36817;SDS011;22761;51.542;16.450;2023-04-21T09:27:49;13.90;;;11.20;;
36817;SDS011;22761;51.542;16.450;2023-04-21T09:30:18;13.30;;;11.00;;
36817;SDS011;22761;51.542;16.450;2023-04-21T09:32:46;14.10;;;11.90;;
36817;SDS011;22761;51.542;16.450;2023-04-21T09:35:16;13.90;;;10.30;;
36817;SDS011;22761;51.542;16.450;2023-04-21T09:37:44;12.10;;;10.80;;
36817;SDS011;22761;51.542;16.450;2023-04-21T09:40:13;13.50;;;11.10;;
36817;SDS011;22761;51.542;16.450;2023-04-21T09:42:42;15.80;;;10.70;;
36817;SDS011;22761;51.542;16.450;2023-04-21T09:45:12;18.10;;;11.90;;
36817;SDS011;22761;51.542;16.450;2023-04-21T09:48:04;15.80;;;11.40;;
36817;SDS011;22761;51.542;16.450;2023-04-21T09:50:35;14.10;;;11.50;;
36817;SDS011;22761;51.542;16.450;2023-04-21T09:53:07;16.10;;;10.80;;
36817;SDS011;22761;51.542;16.450;2023-04-21T09:55:39;13.70;;;10.10;;
36817;SDS011;22761;51.542;16.450;2023-04-21T10:00:37;11.30;;;9.50;;
36817;SDS011;22761;51.542;16.450;2023-04-21T10:03:06;13.50;;;11.10;;
36817;SDS011;22761;51.542;16.450;2023-04-21T10:05:38;14.90;;;9.80;;
36817;SDS011;22761;51.542;16.450;2023-04-21T10:08:10;12.00;;;10.10;;
36817;SDS011;22761;51.542;16.450;2023-04-21T10:10:38;12.60;;;8.20;;
36817;SDS011;22761;51.542;16.450;2023-04-21T10:13:11;12.20;;;7.50;;
36817;SDS011;22761;51.542;16.450;2023-04-21T10:15:42;11.70;;;7.80;;
36817;SDS011;22761;51.542;16.450;2023-04-21T10:18:21;9.50;;;8.10;;
36817;SDS011;22761;51.542;16.450;2023-04-21T10:23:26;9.20;;;7.40;;
36817;SDS011;22761;51.542;16.450;2023-04-21T10:26:09;11.10;;;7.30;;
36817;SDS011;22761;51.542;16.450;2023-04-21T10:28:41;10.80;;;7.80;;
36817;SDS011;22761;51.542;16.450;2023-04-21T10:31:17;8.80;;;8.00;;
36817;SDS011;22761;51.542;16.450;2023-04-21T10:36:34;13.90;;;8.30;;
36817;SDS011;22761;51.542;16.450;2023-04-21T10:39:25;13.50;;;8.40;;
36817;SDS011;22761;51.542;16.450;2023-04-21T10:47:26;12.40;;;9.60;;
36817;SDS011;22761;51.542;16.450;2023-04-21T10:49:56;9.50;;;7.80;;
36817;SDS011;22761;51.542;16.450;2023-04-21T10:52:29;15.70;;;9.10;;
36817;SDS011;22761;51.542;16.450;2023-04-21T10:57:30;11.10;;;6.90;;
36817;SDS011;22761;51.542;16.450;2023-04-21T11:00:00;8.30;;;6.90;;
36817;SDS011;22761;51.542;16.450;2023-04-21T11:02:28;8.10;;;7.30;;
36817;SDS011;22761;51.542;16.450;2023-04-21T11:04:57;9.10;;;7.60;;
36817;SDS011;22761;51.542;16.450;2023-04-21T11:07:26;9.20;;;7.40;;
36817;SDS011;22761;51.542;16.450;2023-04-21T11:12:30;9.80;;;7.80;;
36817;SDS011;22761;51.542;16.450;2023-04-21T11:15:02;9.20;;;7.80;;
36817;SDS011;22761;51.542;16.450;2023-04-21T11:17:35;7.90;;;7.10;;
36817;SDS011;22761;51.542;16.450;2023-04-21T11:20:05;10.70;;;7.40;;
36817;SDS011;22761;51.542;16.450;2023-04-21T11:25:03;10.40;;;7.70;;
36817;SDS011;22761;51.542;16.450;2023-04-21T11:27:32;8.50;;;7.20;;
36817;SDS011;22761;51.542;16.450;2023-04-21T11:30:01;8.00;;;7.20;;
36817;SDS011;22761;51.542;16.450;2023-04-21T11:32:30;11.00;;;7.90;;
36817;SDS011;22761;51.542;16.450;2023-04-21T11:34:59;9.00;;;7.50;;
36817;SDS011;22761;51.542;16.450;2023-04-21T11:37:27;11.20;;;7.40;;
36817;SDS011;22761;51.542;16.450;2023-04-21T11:39:58;10.00;;;7.40;;
36817;SDS011;22761;51.542;16.450;2023-04-21T11:42:28;7.90;;;6.90;;
36817;SDS011;22761;51.542;16.450;2023-04-21T11:44:57;9.90;;;7.70;;
36817;SDS011;22761;51.542;16.450;2023-04-21T11:47:26;10.10;;;7.40;;
36817;SDS011;22761;51.542;16.450;2023-04-21T11:50:00;8.80;;;7.70;;
36817;SDS011;22761;51.542;16.450;2023-04-21T11:52:32;12.50;;;8.20;;
36817;SDS011;22761;51.542;16.450;2023-04-21T11:57:39;11.20;;;7.10;;
36817;SDS011;22761;51.542;16.450;2023-04-21T12:00:09;11.70;;;6.90;;
36817;SDS011;22761;51.542;16.450;2023-04-21T12:02:39;9.70;;;7.00;;
36817;SDS011;22761;51.542;16.450;2023-04-21T12:05:08;7.90;;;7.00;;
36817;SDS011;22761;51.542;16.450;2023-04-21T12:07:45;8.80;;;6.60;;
36817;SDS011;22761;51.542;16.450;2023-04-21T12:10:20;7.90;;;6.20;;
36817;SDS011;22761;51.542;16.450;2023-04-21T12:12:49;9.20;;;6.90;;
36817;SDS011;22761;51.542;16.450;2023-04-21T12:17:50;7.60;;;5.80;;
36817;SDS011;22761;51.542;16.450;2023-04-21T12:20:23;8.60;;;6.50;;
36817;SDS011;22761;51.542;16.450;2023-04-21T12:22:53;8.50;;;7.10;;
36817;SDS011;22761;51.542;16.450;2023-04-21T12:25:21;11.80;;;7.20;;
36817;SDS011;22761;51.542;16.450;2023-04-21T12:27:57;8.60;;;6.60;;
36817;SDS011;22761;51.542;16.450;2023-04-21T12:30:26;10.10;;;6.80;;
36817;SDS011;22761;51.542;16.450;2023-04-21T12:32:54;8.90;;;6.80;;
36817;SDS011;22761;51.542;16.450;2023-04-21T12:35:24;7.80;;;7.00;;
36817;SDS011;22761;51.542;16.450;2023-04-21T12:40:20;8.20;;;6.10;;
36817;SDS011;22761;51.542;16.450;2023-04-21T12:42:49;9.00;;;6.50;;
36817;SDS011;22761;51.542;16.450;2023-04-21T12:45:17;11.30;;;7.20;;
36817;SDS011;22761;51.542;16.450;2023-04-21T12:47:45;6.90;;;6.10;;
36817;SDS011;22761;51.542;16.450;2023-04-21T12:50:14;12.60;;;6.90;;
36817;SDS011;22761;51.542;16.450;2023-04-21T12:52:43;9.40;;;6.90;;
36817;SDS011;22761;51.542;16.450;2023-04-21T12:55:11;7.70;;;6.90;;
36817;SDS011;22761;51.542;16.450;2023-04-21T12:57:40;10.40;;;7.00;;
36817;SDS011;22761;51.542;16.450;2023-04-21T13:00:08;8.10;;;6.30;;
36817;SDS011;22761;51.542;16.450;2023-04-21T13:02:39;8.30;;;6.20;;
36817;SDS011;22761;51.542;16.450;2023-04-21T13:05:08;13.80;;;7.20;;
36817;SDS011;22761;51.542;16.450;2023-04-21T13:07:38;7.90;;;6.80;;
36817;SDS011;22761;51.542;16.450;2023-04-21T13:10:07;8.80;;;5.90;;
36817;SDS011;22761;51.542;16.450;2023-04-21T13:12:35;6.90;;;5.70;;
36817;SDS011;22761;51.542;16.450;2023-04-21T13:15:04;8.80;;;6.90;;
36817;SDS011;22761;51.542;16.450;2023-04-21T13:17:33;7.60;;;6.50;;
36817;SDS011;22761;51.542;16.450;2023-04-21T13:20:01;11.60;;;6.00;;
36817;SDS011;22761;51.542;16.450;2023-04-21T13:22:30;6.60;;;5.80;;
36817;SDS011;22761;51.542;16.450;2023-04-21T13:24:58;8.00;;;6.00;;
36817;SDS011;22761;51.542;16.450;2023-04-21T13:27:27;9.40;;;6.30;;
36817;SDS011;22761;51.542;16.450;2023-04-21T13:29:55;8.30;;;6.20;;
36817;SDS011;22761;51.542;16.450;2023-04-21T13:32:24;7.30;;;6.30;;
36817;SDS011;22761;51.542;16.450;2023-04-21T13:34:52;9.20;;;5.80;;
36817;SDS011;22761;51.542;16.450;2023-04-21T13:37:21;6.50;;;5.90;;
36817;SDS011;22761;51.542;16.450;2023-04-21T13:39:49;7.20;;;5.90;;
36817;SDS011;22761;51.542;16.450;2023-04-21T13:42:18;8.00;;;6.00;;
36817;SDS011;22761;51.542;16.450;2023-04-21T13:44:46;7.60;;;5.80;;
36817;SDS011;22761;51.542;16.450;2023-04-21T13:47:14;6.30;;;5.70;;
36817;SDS011;22761;51.542;16.450;2023-04-21T13:49:42;6.70;;;5.60;;
36817;SDS011;22761;51.542;16.450;2023-04-21T13:52:11;9.50;;;5.50;;
36817;SDS011;22761;51.542;16.450;2023-04-21T13:54:39;8.50;;;6.00;;
36817;SDS011;22761;51.542;16.450;2023-04-21T13:57:07;6.10;;;5.40;;
36817;SDS011;22761;51.542;16.450;2023-04-21T13:59:35;8.10;;;5.00;;
36817;SDS011;22761;51.542;16.450;2023-04-21T14:02:03;6.20;;;5.50;;
36817;SDS011;22761;51.542;16.450;2023-04-21T14:04:32;7.80;;;5.50;;
36817;SDS011;22761;51.542;16.450;2023-04-21T14:07:01;11.20;;;6.10;;
36817;SDS011;22761;51.542;16.450;2023-04-21T14:09:29;6.90;;;6.20;;
36817;SDS011;22761;51.542;16.450;2023-04-21T14:11:58;8.60;;;5.80;;
36817;SDS011;22761;51.542;16.450;2023-04-21T14:14:26;7.30;;;5.10;;
36817;SDS011;22761;51.542;16.450;2023-04-21T14:17:06;6.00;;;5.00;;
36817;SDS011;22761;51.542;16.450;2023-04-21T14:19:34;8.40;;;4.90;;
36817;SDS011;22761;51.542;16.450;2023-04-21T14:24:32;7.70;;;5.60;;
36817;SDS011;22761;51.542;16.450;2023-04-21T14:27:00;6.60;;;4.90;;
36817;SDS011;22761;51.542;16.450;2023-04-21T14:29:29;7.70;;;5.00;;
36817;SDS011;22761;51.542;16.450;2023-04-21T14:31:57;10.00;;;5.60;;
36817;SDS011;22761;51.542;16.450;2023-04-21T14:34:26;8.50;;;5.20;;
36817;SDS011;22761;51.542;16.450;2023-04-21T14:36:54;6.40;;;5.20;;
36817;SDS011;22761;51.542;16.450;2023-04-21T14:39:23;7.50;;;5.40;;
36817;SDS011;22761;51.542;16.450;2023-04-21T14:41:51;7.20;;;5.40;;
36817;SDS011;22761;51.542;16.450;2023-04-21T14:44:20;9.90;;;4.60;;
36817;SDS011;22761;51.542;16.450;2023-04-21T14:46:48;8.80;;;5.60;;
36817;SDS011;22761;51.542;16.450;2023-04-21T14:49:35;6.30;;;4.80;;
36817;SDS011;22761;51.542;16.450;2023-04-21T14:52:05;6.40;;;4.80;;
36817;SDS011;22761;51.542;16.450;2023-04-21T14:54:34;6.50;;;5.20;;
36817;SDS011;22761;51.542;16.450;2023-04-21T14:57:02;6.30;;;5.10;;
36817;SDS011;22761;51.542;16.450;2023-04-21T14:59:48;6.00;;;5.00;;
36817;SDS011;22761;51.542;16.450;2023-04-21T15:02:18;5.90;;;5.00;;
36817;SDS011;22761;51.542;16.450;2023-04-21T15:04:48;6.20;;;4.70;;
36817;SDS011;22761;51.542;16.450;2023-04-21T15:09:51;6.60;;;5.00;;
36817;SDS011;22761;51.542;16.450;2023-04-21T15:12:20;5.50;;;4.90;;
36817;SDS011;22761;51.542;16.450;2023-04-21T15:14:48;8.40;;;5.00;;
36817;SDS011;22761;51.542;16.450;2023-04-21T15:17:16;11.60;;;5.10;;
36817;SDS011;22761;51.542;16.450;2023-04-21T15:19:45;9.60;;;5.60;;
36817;SDS011;22761;51.542;16.450;2023-04-21T15:22:13;7.10;;;5.20;;
36817;SDS011;22761;51.542;16.450;2023-04-21T15:24:42;5.50;;;4.70;;
36817;SDS011;22761;51.542;16.450;2023-04-21T15:27:10;7.90;;;4.70;;
36817;SDS011;22761;51.542;16.450;2023-04-21T15:29:39;5.00;;;4.30;;
36817;SDS011;22761;51.542;16.450;2023-04-21T15:32:08;5.40;;;4.60;;
36817;SDS011;22761;51.542;16.450;2023-04-21T15:34:36;7.50;;;4.60;;
36817;SDS011;22761;51.542;16.450;2023-04-21T15:37:04;5.50;;;4.50;;
36817;SDS011;22761;51.542;16.450;2023-04-21T15:39:32;8.30;;;4.70;;
36817;SDS011;22761;51.542;16.450;2023-04-21T15:42:01;7.00;;;4.00;;
36817;SDS011;22761;51.542;16.450;2023-04-21T15:44:31;5.90;;;4.80;;
36817;SDS011;22761;51.542;16.450;2023-04-21T15:47:01;5.80;;;4.90;;
36817;SDS011;22761;51.542;16.450;2023-04-21T15:49:30;5.00;;;4.50;;
36817;SDS011;22761;51.542;16.450;2023-04-21T15:51:58;5.10;;;4.30;;
36817;SDS011;22761;51.542;16.450;2023-04-21T15:54:26;5.00;;;3.80;;
36817;SDS011;22761;51.542;16.450;2023-04-21T15:56:54;7.20;;;4.40;;
36817;SDS011;22761;51.542;16.450;2023-04-21T15:59:24;5.60;;;4.40;;
36817;SDS011;22761;51.542;16.450;2023-04-21T16:01:53;6.60;;;4.70;;
36817;SDS011;22761;51.542;16.450;2023-04-21T16:04:23;7.70;;;4.40;;
36817;SDS011;22761;51.542;16.450;2023-04-21T16:06:52;7.20;;;4.50;;
36817;SDS011;22761;51.542;16.450;2023-04-21T16:09:20;4.90;;;4.10;;
36817;SDS011;22761;51.542;16.450;2023-04-21T16:11:48;5.30;;;3.90;;
36817;SDS011;22761;51.542;16.450;2023-04-21T16:14:17;4.90;;;4.20;;
36817;SDS011;22761;51.542;16.450;2023-04-21T16:16:46;7.40;;;4.40;;
36817;SDS011;22761;51.542;16.450;2023-04-21T16:19:14;5.30;;;4.00;;
36817;SDS011;22761;51.542;16.450;2023-04-21T16:21:43;5.70;;;4.50;;
36817;SDS011;22761;51.542;16.450;2023-04-21T16:24:11;7.00;;;4.30;;
36817;SDS011;22761;51.542;16.450;2023-04-21T16:26:40;5.70;;;4.40;;
36817;SDS011;22761;51.542;16.450;2023-04-21T16:29:08;5.50;;;4.10;;
36817;SDS011;22761;51.542;16.450;2023-04-21T16:31:36;8.00;;;4.60;;
36817;SDS011;22761;51.542;16.450;2023-04-21T16:34:05;5.70;;;4.10;;
36817;SDS011;22761;51.542;16.450;2023-04-21T16:36:33;6.10;;;4.20;;
36817;SDS011;22761;51.542;16.450;2023-04-21T16:39:01;5.10;;;4.00;;
36817;SDS011;22761;51.542;16.450;2023-04-21T16:41:30;5.70;;;4.20;;
36817;SDS011;22761;51.542;16.450;2023-04-21T16:43:58;6.30;;;4.50;;
36817;SDS011;22761;51.542;16.450;2023-04-21T16:46:27;7.20;;;4.10;;
36817;SDS011;22761;51.542;16.450;2023-04-21T16:48:55;6.60;;;4.00;;
36817;SDS011;22761;51.542;16.450;2023-04-21T16:51:24;5.50;;;4.30;;
36817;SDS011;22761;51.542;16.450;2023-04-21T16:53:55;8.60;;;4.20;;
36817;SDS011;22761;51.542;16.450;2023-04-21T16:56:24;6.40;;;3.90;;
36817;SDS011;22761;51.542;16.450;2023-04-21T16:58:52;7.70;;;3.70;;
36817;SDS011;22761;51.542;16.450;2023-04-21T17:01:20;5.40;;;3.70;;
36817;SDS011;22761;51.542;16.450;2023-04-21T17:03:49;6.10;;;4.30;;
36817;SDS011;22761;51.542;16.450;2023-04-21T17:06:17;4.20;;;3.50;;
36817;SDS011;22761;51.542;16.450;2023-04-21T17:08:48;8.30;;;4.10;;
36817;SDS011;22761;51.542;16.450;2023-04-21T17:11:16;6.10;;;3.70;;
36817;SDS011;22761;51.542;16.450;2023-04-21T17:13:45;8.10;;;4.00;;
36817;SDS011;22761;51.542;16.450;2023-04-21T17:16:13;6.00;;;3.50;;
36817;SDS011;22761;51.542;16.450;2023-04-21T17:18:42;4.50;;;3.70;;
36817;SDS011;22761;51.542;16.450;2023-04-21T17:21:10;4.30;;;3.60;;
36817;SDS011;22761;51.542;16.450;2023-04-21T17:23:39;6.30;;;4.50;;
36817;SDS011;22761;51.542;16.450;2023-04-21T17:26:08;5.60;;;3.60;;
36817;SDS011;22761;51.542;16.450;2023-04-21T17:28:39;6.50;;;3.60;;
36817;SDS011;22761;51.542;16.450;2023-04-21T17:31:08;4.00;;;3.40;;
36817;SDS011;22761;51.542;16.450;2023-04-21T17:33:43;5.20;;;3.30;;
36817;SDS011;22761;51.542;16.450;2023-04-21T17:36:12;5.50;;;3.30;;
36817;SDS011;22761;51.542;16.450;2023-04-21T17:38:40;5.30;;;3.20;;
36817;SDS011;22761;51.542;16.450;2023-04-21T17:41:10;6.70;;;3.20;;
36817;SDS011;22761;51.542;16.450;2023-04-21T17:43:38;7.20;;;3.70;;
36817;SDS011;22761;51.542;16.450;2023-04-21T17:46:09;6.30;;;3.50;;
36817;SDS011;22761;51.542;16.450;2023-04-21T17:48:38;4.20;;;3.70;;
36817;SDS011;22761;51.542;16.450;2023-04-21T17:51:06;6.50;;;3.70;;
36817;SDS011;22761;51.542;16.450;2023-04-21T17:53:36;5.40;;;3.70;;
36817;SDS011;22761;51.542;16.450;2023-04-21T17:56:04;7.00;;;3.70;;
36817;SDS011;22761;51.542;16.450;2023-04-21T17:58:34;5.60;;;3.90;;
36817;SDS011;22761;51.542;16.450;2023-04-21T18:01:05;7.10;;;3.90;;
36817;SDS011;22761;51.542;16.450;2023-04-21T18:03:36;6.80;;;4.20;;
36817;SDS011;22761;51.542;16.450;2023-04-21T18:06:08;5.50;;;3.70;;
36817;SDS011;22761;51.542;16.450;2023-04-21T18:08:38;4.80;;;3.60;;
36817;SDS011;22761;51.542;16.450;2023-04-21T18:11:06;9.60;;;5.40;;
36817;SDS011;22761;51.542;16.450;2023-04-21T18:13:42;10.60;;;5.50;;
36817;SDS011;22761;51.542;16.450;2023-04-21T18:16:10;9.10;;;5.10;;
36817;SDS011;22761;51.542;16.450;2023-04-21T18:18:44;8.90;;;4.30;;
36817;SDS011;22761;51.542;16.450;2023-04-21T18:21:14;7.80;;;5.30;;
36817;SDS011;22761;51.542;16.450;2023-04-21T18:23:45;7.20;;;4.90;;
36817;SDS011;22761;51.542;16.450;2023-04-21T18:26:16;7.90;;;4.20;;